Greenway, Arkansas
Current Conditions -  °F | °C
As of 8:35 PM on Sunday 21 Dec 2014 (Local Time) from K4M9 Reporting Station
Overcast Overcast  
Wind Chill:   Ceiling: 10000
Heat Index:   Visibility: 10mi
Dew Point:   Wind: 7mph
Humidity: 81%   Direction: 70°ENE
Pressure: 29.97"   Gusts: NA
Location:  36.34°N, 90.22°W
Report Text: K4M9 220235Z AUTO 07006KT 10SM FEW080 OVC100 06/03 A2997 RMK AO2
Loading
Personal Weather Stations






























Interactive Weather Map New forecast layout! Learn more

10-Day Weather Forecast

Advertisements
Track Severe Weather on mobile